Time;durP1;ratioP1;P1;durP2;ratioP2;P2;SDS_P1;SDS_P2;PMS_P1;PMS_P2;Temp;Humidity;BMP_temperature;BMP_pressure;BME280_temperature;BME280_humidity;BME280_pressure;Samples;Min_cycle;Max_cycle;Signal;HPM_P1;HPM_P2
2021/11/25 00:00:23;;;;;;;11.37;10.37;;;4.40;73.30;;;;;;5052639;28;20041;-90
2021/11/25 00:02:49;;;;;;;10.40;9.70;;;4.40;73.30;;;;;;5052234;28;20029;-90
2021/11/25 00:05:16;;;;;;;9.90;9.30;;;4.40;73.30;;;;;;5052780;28;20029;-89
2021/11/25 00:07:42;;;;;;;9.83;9.23;;;4.40;73.30;;;;;;5053061;28;20036;-91
2021/11/25 00:10:09;;;;;;;10.67;10.07;;;4.40;73.40;;;;;;5053350;28;20025;-90
2021/11/25 00:12:35;;;;;;;16.83;10.80;;;4.40;73.40;;;;;;5054581;28;20021;-88
2021/11/25 00:15:02;;;;;;;10.77;10.17;;;4.40;73.40;;;;;;5052191;28;20049;-90
2021/11/25 00:17:28;;;;;;;9.37;8.97;;;4.40;73.40;;;;;;5051259;28;20045;-89
2021/11/25 00:19:54;;;;;;;13.00;10.57;;;4.40;73.40;;;;;;5053441;28;20033;-90
2021/11/25 00:22:20;;;;;;;9.83;9.23;;;4.30;73.30;;;;;;5052666;28;20045;-90
2021/11/25 00:24:46;;;;;;;10.57;9.97;;;4.30;73.40;;;;;;5052603;28;20037;-90
2021/11/25 00:27:12;;;;;;;10.60;10.00;;;4.30;73.40;;;;;;5052321;28;20386;-89
2021/11/25 00:29:38;;;;;;;9.97;9.47;;;4.30;73.40;;;;;;5053881;28;20040;-89
2021/11/25 00:32:05;;;;;;;10.50;9.53;;;4.30;73.50;;;;;;5052877;28;20048;-90
2021/11/25 00:34:31;;;;;;;10.47;9.93;;;4.30;73.40;;;;;;5052203;28;20081;-90
2021/11/25 00:36:57;;;;;;;10.87;9.97;;;4.30;73.40;;;;;;5036317;28;20495;-90
2021/11/25 00:39:23;;;;;;;10.30;9.70;;;4.30;73.40;;;;;;5052408;28;20029;-90
2021/11/25 00:41:49;;;;;;;9.97;9.40;;;4.30;73.40;;;;;;5053735;28;20040;-90
2021/11/25 00:44:17;;;;;;;9.27;8.70;;;4.20;73.40;;;;;;5052379;28;20378;-91
2021/11/25 00:46:43;;;;;;;9.77;9.20;;;4.20;73.50;;;;;;5052891;28;20044;-90
2021/11/25 00:49:10;;;;;;;10.33;9.73;;;4.20;73.50;;;;;;5052197;28;20047;-90
2021/11/25 00:51:36;;;;;;;10.50;9.90;;;4.20;73.50;;;;;;5052486;28;20405;-90
2021/11/25 00:54:02;;;;;;;16.73;9.53;;;4.20;73.60;;;;;;5051776;28;20036;-91
2021/11/25 00:56:28;;;;;;;10.07;9.47;;;4.20;73.70;;;;;;5051786;28;20045;-90
2021/11/25 00:58:54;;;;;;;10.43;9.63;;;4.20;73.70;;;;;;5053286;28;20029;-90
2021/11/25 01:01:20;;;;;;;11.40;10.67;;;4.10;73.70;;;;;;5051548;28;20524;-90
2021/11/25 01:03:47;;;;;;;10.77;10.17;;;4.10;73.80;;;;;;5052470;28;20382;-90
2021/11/25 01:06:13;;;;;;;12.87;11.67;;;4.10;73.80;;;;;;5051943;28;20048;-91
2021/11/25 01:08:39;;;;;;;10.20;9.60;;;4.10;73.80;;;;;;5052787;28;20041;-90
2021/11/25 01:11:05;;;;;;;11.53;10.83;;;4.10;73.80;;;;;;5052904;28;20394;-89
2021/11/25 01:13:31;;;;;;;11.33;10.63;;;4.10;73.80;;;;;;5053541;28;20037;-90
2021/11/25 01:15:57;;;;;;;10.70;10.03;;;4.10;73.80;;;;;;5051476;28;20045;-90
2021/11/25 01:18:23;;;;;;;10.00;9.40;;;4.00;73.80;;;;;;5051975;28;20470;-91
2021/11/25 01:20:50;;;;;;;10.73;9.93;;;4.10;73.90;;;;;;5051841;28;20029;-91
2021/11/25 01:23:21;;;;;;;9.33;8.77;;;4.10;73.80;;;;;;5051121;28;20033;-90
2021/11/25 01:25:48;;;;;;;11.07;10.40;;;4.10;73.80;;;;;;5050703;28;20025;-90
2021/11/25 01:28:14;;;;;;;9.40;9.00;;;4.10;73.80;;;;;;5051569;28;20025;-89
2021/11/25 01:30:47;;;;;;;11.57;10.67;;;4.10;73.80;;;;;;5051691;28;20402;-89
2021/11/25 01:33:14;;;;;;;10.43;9.90;;;4.00;73.80;;;;;;5051757;28;20064;-91
2021/11/25 01:35:40;;;;;;;17.33;10.80;;;4.00;73.80;;;;;;5052561;28;20043;-90
2021/11/25 01:38:07;;;;;;;8.97;8.50;;;4.00;73.80;;;;;;5051037;28;20036;-92
2021/11/25 01:40:34;;;;;;;10.53;9.93;;;4.00;73.80;;;;;;5051483;28;20414;-89
2021/11/25 01:43:00;;;;;;;10.70;9.93;;;4.00;73.80;;;;;;5051767;28;20033;-92
2021/11/25 01:45:27;;;;;;;10.17;9.53;;;4.00;73.80;;;;;;5050480;28;20041;-90
2021/11/25 01:47:53;;;;;;;9.43;9.00;;;4.00;73.90;;;;;;5051270;28;20025;-92
2021/11/25 01:50:20;;;;;;;10.03;9.53;;;3.90;73.90;;;;;;5050772;28;20031;-91
2021/11/25 01:52:46;;;;;;;10.83;9.90;;;3.90;73.90;;;;;;5051127;28;20025;-90
2021/11/25 01:55:13;;;;;;;10.10;9.30;;;3.90;73.90;;;;;;5050381;28;20041;-89
2021/11/25 01:57:39;;;;;;;10.20;9.70;;;3.90;74.00;;;;;;5033750;28;20049;-90
2021/11/25 02:00:31;;;;;;;9.10;8.70;;;3.80;74.00;;;;;;5050647;28;20029;-90
2021/11/25 02:02:57;;;;;;;;;;;3.80;74.10;;;;;;5051032;28;20041;-92
2021/11/25 02:05:23;;;;;;;9.47;8.83;;;3.80;74.00;;;;;;5084543;28;19938;-90
2021/11/25 02:07:49;;;;;;;9.87;9.37;;;3.80;74.00;;;;;;5045015;28;20402;-91
2021/11/25 02:10:17;;;;;;;9.57;9.07;;;3.80;74.00;;;;;;5050368;28;20025;-90
2021/11/25 02:12:43;;;;;;;11.33;10.67;;;3.80;74.20;;;;;;5032502;28;20048;-90
2021/11/25 02:15:10;;;;;;;9.97;9.47;;;3.70;74.20;;;;;;5050308;28;20045;-90
2021/11/25 02:17:36;;;;;;;10.03;9.53;;;3.70;74.30;;;;;;5050775;28;20540;-92
2021/11/25 02:20:04;;;;;;;10.40;9.90;;;3.70;74.30;;;;;;5048813;28;20508;-90
2021/11/25 02:22:30;;;;;;;10.47;9.90;;;3.70;74.30;;;;;;5046025;28;20041;-91
2021/11/25 02:24:56;;;;;;;9.40;8.90;;;3.60;74.20;;;;;;5033487;28;20040;-92
2021/11/25 02:27:22;;;;;;;10.33;9.77;;;3.60;74.20;;;;;;5051334;28;20025;-91
2021/11/25 02:29:48;;;;;;;10.37;9.87;;;3.60;74.30;;;;;;5033900;28;20438;-90
2021/11/25 02:32:34;;;;;;;10.37;9.87;;;3.60;74.30;;;;;;5049912;28;20401;-91
2021/11/25 02:35:00;;;;;;;10.70;10.10;;;3.60;74.40;;;;;;5050393;28;20465;-92
2021/11/25 02:37:26;;;;;;;9.80;9.30;;;3.60;74.40;;;;;;5050370;28;20394;-89
2021/11/25 02:39:53;;;;;;;10.87;10.20;;;3.60;74.40;;;;;;5052310;28;20029;-91
2021/11/25 02:42:19;;;;;;;9.13;8.67;;;3.60;74.50;;;;;;5051074;28;20048;-92
2021/11/25 02:44:45;;;;;;;8.93;8.47;;;3.60;74.50;;;;;;5051728;28;20462;-90
2021/11/25 02:47:11;;;;;;;9.20;8.70;;;3.50;74.40;;;;;;5050187;28;20037;-89
2021/11/25 02:49:41;;;;;;;10.03;9.33;;;3.50;74.40;;;;;;5050218;28;20040;-91
2021/11/25 02:52:07;;;;;;;10.50;9.90;;;3.50;74.50;;;;;;5050141;28;20044;-91
2021/11/25 02:54:33;;;;;;;9.07;8.63;;;3.50;74.50;;;;;;5046515;28;20037;-91
2021/11/25 02:57:00;;;;;;;9.80;9.30;;;3.50;74.50;;;;;;5047378;28;20045;-90
2021/11/25 02:59:26;;;;;;;9.70;9.20;;;3.50;74.50;;;;;;5048861;28;20059;-90
2021/11/25 03:01:52;;;;;;;9.37;8.97;;;3.50;74.50;;;;;;5046919;28;20041;-90
2021/11/25 03:04:18;;;;;;;9.23;8.83;;;3.50;74.60;;;;;;5047543;28;20025;-89
2021/11/25 03:06:44;;;;;;;8.70;8.30;;;3.50;74.60;;;;;;5045268;28;20025;-90
2021/11/25 03:09:10;;;;;;;9.50;9.00;;;3.50;74.60;;;;;;5048003;28;20036;-92
2021/11/25 03:11:36;;;;;;;10.13;9.53;;;3.50;74.60;;;;;;5030816;28;20045;-91
2021/11/25 03:14:05;;;;;;;8.47;8.07;;;3.50;74.60;;;;;;5047358;28;20502;-92
2021/11/25 03:16:32;;;;;;;9.07;8.67;;;3.40;74.50;;;;;;5035852;28;20041;-90
2021/11/25 03:18:58;;;;;;;9.30;8.90;;;3.40;74.60;;;;;;5053824;28;20474;-90
2021/11/25 03:21:25;;;;;;;8.60;8.20;;;3.40;74.60;;;;;;5053232;28;20032;-91
2021/11/25 03:23:51;;;;;;;9.53;9.13;;;3.40;74.60;;;;;;5052119;28;20036;-91
2021/11/25 03:26:18;;;;;;;9.23;8.83;;;3.40;74.70;;;;;;5050638;28;20029;-91
2021/11/25 03:28:45;;;;;;;10.33;9.83;;;3.30;74.70;;;;;;5066698;28;20048;-94
2021/11/25 03:31:16;;;;;;;10.33;9.73;;;3.30;74.70;;;;;;5052318;28;20033;-94
2021/11/25 03:33:42;;;;;;;9.87;9.37;;;3.30;74.70;;;;;;5051849;28;20044;-94
2021/11/25 03:36:09;;;;;;;10.10;9.50;;;3.30;74.80;;;;;;5053222;28;20029;-93
2021/11/25 03:38:35;;;;;;;13.27;9.37;;;3.30;74.90;;;;;;5048866;28;20033;-92
2021/11/25 03:41:01;;;;;;;9.70;9.20;;;3.30;74.90;;;;;;5056028;28;20036;-93
2021/11/25 03:43:27;;;;;;;9.93;9.33;;;3.20;75.70;;;;;;5054731;28;20029;-94
2021/11/25 03:45:54;;;;;;;8.47;8.07;;;3.20;75.70;;;;;;5055620;28;20581;-92
2021/11/25 03:48:23;;;;;;;10.37;9.43;;;3.20;75.10;;;;;;5054986;28;20040;-93
2021/11/25 03:50:50;;;;;;;9.27;8.53;;;3.10;75.80;;;;;;5056189;28;20029;-92
2021/11/25 03:53:17;;;;;;;8.53;8.13;;;3.10;75.10;;;;;;5055718;28;20426;-93
2021/11/25 03:55:43;;;;;;;8.53;8.10;;;3.10;75.10;;;;;;5054969;28;20437;-92
2021/11/25 03:58:09;;;;;;;8.93;8.53;;;3.10;75.10;;;;;;5053637;28;20059;-90
2021/11/25 04:00:35;;;;;;;8.97;8.57;;;3.10;75.20;;;;;;5054083;28;20500;-88
2021/11/25 04:03:01;;;;;;;9.20;8.70;;;3.10;75.10;;;;;;5052135;28;20049;-91
2021/11/25 04:05:28;;;;;;;9.43;8.93;;;3.10;75.10;;;;;;5051843;28;20041;-92
2021/11/25 04:07:54;;;;;;;8.20;7.80;;;3.10;75.10;;;;;;5053006;28;20343;-92
2021/11/25 04:10:20;;;;;;;9.60;8.97;;;3.10;75.10;;;;;;5053714;28;20037;-92
2021/11/25 04:12:46;;;;;;;8.97;8.57;;;3.10;75.10;;;;;;5053996;28;20081;-93
2021/11/25 04:15:13;;;;;;;9.47;8.83;;;3.10;75.10;;;;;;5031297;28;20053;-92
2021/11/25 04:17:39;;;;;;;8.70;8.10;;;3.10;75.10;;;;;;5061342;28;20406;-92
2021/11/25 04:20:05;;;;;;;8.67;8.17;;;3.10;75.10;;;;;;5051875;28;20041;-91
2021/11/25 04:22:31;;;;;;;8.97;8.47;;;3.10;75.10;;;;;;5054657;28;20037;-92
2021/11/25 04:24:58;;;;;;;8.47;8.07;;;3.10;75.10;;;;;;5049369;28;20047;-92
2021/11/25 04:27:24;;;;;;;9.13;8.63;;;3.10;75.10;;;;;;5054533;28;20037;-91
2021/11/25 04:30:12;;;;;;;11.73;10.57;;;3.00;75.10;;;;;;5054410;28;20037;-91
2021/11/25 04:35:33;;;;;;;7.90;7.50;;;3.00;75.20;;;;;;5054723;28;20037;-92
2021/11/25 04:38:04;;;;;;;8.50;7.90;;;3.00;75.20;;;;;;5053837;28;20044;-91
2021/11/25 04:40:33;;;;;;;;;;;3.00;75.20;;;;;;5037492;28;20040;-92
2021/11/25 04:43:00;;;;;;;8.30;7.90;;;3.00;75.30;;;;;;5045674;28;19905;-93
2021/11/25 04:45:26;;;;;;;8.20;7.80;;;2.90;75.30;;;;;;5052281;28;20036;-92
2021/11/25 04:47:52;;;;;;;8.17;7.77;;;2.90;75.40;;;;;;5030305;28;20041;-91
2021/11/25 04:50:20;;;;;;;7.43;7.13;;;2.80;75.40;;;;;;5052646;28;20024;-92
2021/11/25 04:52:50;;;;;;;7.67;7.27;;;2.80;75.50;;;;;;5031909;28;20402;-93
2021/11/25 04:55:16;;;;;;;9.93;9.00;;;2.70;75.50;;;;;;5053940;28;20469;-92
2021/11/25 04:57:42;;;;;;;7.00;6.70;;;2.80;75.60;;;;;;5052792;28;20037;-91
2021/11/25 05:00:09;;;;;;;8.00;7.53;;;2.70;75.60;;;;;;5052327;28;20029;-92
2021/11/25 05:02:35;;;;;;;8.33;7.83;;;2.70;75.60;;;;;;5052283;28;20045;-92
2021/11/25 05:05:02;;;;;;;7.77;7.37;;;2.80;75.70;;;;;;5052262;28;20028;-93
2021/11/25 05:07:28;;;;;;;8.50;8.00;;;2.80;75.70;;;;;;5051816;28;20041;-91
2021/11/25 05:09:54;;;;;;;9.03;8.47;;;2.80;75.60;;;;;;5052672;28;20029;-92
2021/11/25 05:12:20;;;;;;;8.30;7.80;;;2.80;75.60;;;;;;5053168;28;20044;-93
2021/11/25 05:14:46;;;;;;;8.10;7.70;;;2.80;75.60;;;;;;5053179;28;20064;-93
2021/11/25 05:17:12;;;;;;;8.57;7.93;;;2.80;75.60;;;;;;5052235;28;20036;-91
2021/11/25 05:19:38;;;;;;;7.63;7.30;;;2.80;75.50;;;;;;5052811;28;20366;-92
2021/11/25 05:22:04;;;;;;;7.90;7.50;;;2.80;75.50;;;;;;5053038;28;20032;-92
2021/11/25 05:24:30;;;;;;;9.20;8.70;;;2.90;75.50;;;;;;5051996;28;20036;-91
2021/11/25 05:26:56;;;;;;;7.80;7.43;;;2.80;75.50;;;;;;5029027;28;20038;-92
2021/11/25 05:29:23;;;;;;;7.40;7.10;;;2.80;75.50;;;;;;5042141;28;20364;-92
2021/11/25 05:31:49;;;;;;;8.90;8.40;;;2.90;75.50;;;;;;5050888;28;20033;-93
2021/11/25 05:34:16;;;;;;;8.50;7.90;;;2.80;75.50;;;;;;5051580;28;20036;-92
2021/11/25 05:36:44;;;;;;;8.70;8.30;;;2.80;75.50;;;;;;5051153;28;20032;-93
2021/11/25 05:39:10;;;;;;;7.63;7.27;;;2.90;75.60;;;;;;5050965;28;20056;-92
2021/11/25 05:41:37;;;;;;;7.90;7.50;;;2.90;75.60;;;;;;5052781;28;20041;-88
2021/11/25 05:44:04;;;;;;;7.20;6.90;;;2.90;75.70;;;;;;5052611;28;20382;-92
2021/11/25 05:46:30;;;;;;;8.50;8.10;;;2.90;75.70;;;;;;5035392;28;20048;-92
2021/11/25 05:48:56;;;;;;;8.10;7.70;;;2.90;75.70;;;;;;5051658;28;20040;-92
2021/11/25 05:51:23;;;;;;;8.20;7.80;;;2.90;75.70;;;;;;5052102;28;20045;-92
2021/11/25 05:53:49;;;;;;;7.17;6.83;;;2.90;75.80;;;;;;5049051;28;20482;-92
2021/11/25 05:56:15;;;;;;;8.27;7.87;;;2.80;75.80;;;;;;5032177;28;20037;-85
2021/11/25 05:58:41;;;;;;;7.63;7.13;;;2.90;75.90;;;;;;5033534;28;20041;-89
2021/11/25 06:01:07;;;;;;;7.47;7.07;;;2.90;75.90;;;;;;5051817;28;20036;-87
2021/11/25 06:03:33;;;;;;;8.67;8.20;;;2.90;75.90;;;;;;5050034;28;20585;-87
2021/11/25 06:05:59;;;;;;;8.70;8.20;;;2.90;75.90;;;;;;5051007;28;20033;-85
2021/11/25 06:08:26;;;;;;;7.97;7.57;;;2.90;75.90;;;;;;5051142;28;20036;-89
2021/11/25 06:10:52;;;;;;;7.90;7.50;;;2.90;75.90;;;;;;5050541;28;20494;-87
2021/11/25 06:13:18;;;;;;;8.83;8.37;;;2.90;75.90;;;;;;5051890;28;20058;-86
2021/11/25 06:15:47;;;;;;;8.80;8.30;;;2.90;75.90;;;;;;5050380;28;20041;-89
2021/11/25 06:18:16;;;;;;;8.37;7.97;;;3.00;75.90;;;;;;5050045;28;20237;-89
2021/11/25 06:20:42;;;;;;;8.10;7.63;;;3.00;76.10;;;;;;5051343;28;20029;-88
2021/11/25 06:23:08;;;;;;;9.17;8.67;;;3.00;75.90;;;;;;5051864;28;20032;-91
2021/11/25 06:25:34;;;;;;;9.67;8.87;;;3.00;76.70;;;;;;5051157;28;20045;-88
2021/11/25 06:28:01;;;;;;;9.00;8.50;;;3.00;76.00;;;;;;5050441;28;20072;-87
2021/11/25 06:30:27;;;;;;;8.03;7.63;;;3.00;76.00;;;;;;5051355;28;20040;-89
2021/11/25 06:32:53;;;;;;;8.17;7.73;;;3.00;75.90;;;;;;5051372;28;20040;-89
2021/11/25 06:35:20;;;;;;;9.10;8.50;;;3.00;75.90;;;;;;5050487;28;20036;-91
2021/11/25 06:37:48;;;;;;;7.60;7.20;;;3.00;76.00;;;;;;5050517;28;20052;-91
2021/11/25 06:40:16;;;;;;;8.00;7.60;;;3.00;76.00;;;;;;5050672;28;20028;-87
2021/11/25 06:42:43;;;;;;;8.33;7.93;;;3.00;76.00;;;;;;5050250;28;20037;-88
2021/11/25 06:45:09;;;;;;;8.53;7.93;;;3.00;76.00;;;;;;5028214;28;20474;-88
2021/11/25 06:47:36;;;;;;;8.10;7.70;;;3.00;76.00;;;;;;5038867;28;20029;-88
2021/11/25 06:50:05;;;;;;;8.60;8.10;;;3.10;76.00;;;;;;5039186;28;20017;-88
2021/11/25 06:52:31;;;;;;;8.93;8.27;;;3.10;76.00;;;;;;5033136;28;20367;-88
2021/11/25 06:54:57;;;;;;;8.27;7.87;;;3.10;75.90;;;;;;5051546;28;20029;-91
2021/11/25 06:57:23;;;;;;;8.00;7.60;;;3.10;75.90;;;;;;5051175;28;20037;-87
2021/11/25 06:59:49;;;;;;;8.80;8.30;;;3.10;75.90;;;;;;5050238;28;20033;-89
2021/11/25 07:02:15;;;;;;;8.70;8.30;;;3.10;75.90;;;;;;5048644;28;20504;-88
2021/11/25 07:04:41;;;;;;;8.53;8.03;;;3.20;75.90;;;;;;5049759;28;20029;-89
2021/11/25 07:07:07;;;;;;;8.40;8.00;;;3.10;75.90;;;;;;5050146;28;20052;-86
2021/11/25 07:09:34;;;;;;;8.70;7.80;;;3.10;75.90;;;;;;5051183;28;20029;-90
2021/11/25 07:12:00;;;;;;;9.10;8.60;;;3.10;76.00;;;;;;5030408;28;20037;-91
2021/11/25 07:14:26;;;;;;;9.13;8.67;;;3.10;76.00;;;;;;5049283;28;20037;-92
2021/11/25 07:16:52;;;;;;;8.40;7.93;;;3.10;76.00;;;;;;5049534;28;20033;-91
2021/11/25 07:19:18;;;;;;;8.57;8.10;;;3.10;76.00;;;;;;5049561;28;20374;-90
2021/11/25 07:21:44;;;;;;;9.53;9.03;;;3.20;76.00;;;;;;5049864;28;20049;-87
2021/11/25 07:24:10;;;;;;;8.37;7.97;;;3.20;76.00;;;;;;5049645;28;20493;-87
2021/11/25 07:26:37;;;;;;;8.23;7.83;;;3.20;75.90;;;;;;5050473;28;20033;-87
2021/11/25 07:29:03;;;;;;;8.40;8.00;;;3.20;75.90;;;;;;5050469;28;20501;-85
2021/11/25 07:31:29;;;;;;;8.80;8.30;;;3.20;75.90;;;;;;5048601;28;20049;-86
2021/11/25 07:33:58;;;;;;;8.53;8.03;;;3.20;75.90;;;;;;5016782;28;20490;-92
2021/11/25 07:36:24;;;;;;;8.90;8.30;;;3.20;75.80;;;;;;5049240;28;20033;-91
2021/11/25 07:38:51;;;;;;;7.83;7.47;;;3.20;75.80;;;;;;5050713;28;20060;-89
2021/11/25 07:41:17;;;;;;;7.90;7.50;;;3.30;75.80;;;;;;5050132;28;20028;-91
2021/11/25 07:43:43;;;;;;;8.57;8.17;;;3.30;75.80;;;;;;5049045;28;20485;-89
2021/11/25 07:46:09;;;;;;;8.10;7.70;;;3.30;75.80;;;;;;5049767;28;20025;-90
2021/11/25 07:48:35;;;;;;;8.33;7.93;;;3.30;75.80;;;;;;5049564;28;20052;-86
2021/11/25 07:51:01;;;;;;;7.70;7.30;;;3.30;75.80;;;;;;5050358;28;20033;-91
2021/11/25 07:53:28;;;;;;;8.90;8.50;;;3.30;75.80;;;;;;5049494;28;20025;-89
2021/11/25 07:55:55;;;;;;;9.97;9.33;;;3.30;75.80;;;;;;5048825;28;20041;-86
2021/11/25 07:58:21;;;;;;;8.43;8.03;;;3.30;75.80;;;;;;5048915;28;20056;-85
2021/11/25 08:00:47;;;;;;;8.47;8.07;;;3.30;75.80;;;;;;5052834;28;20041;-86
2021/11/25 08:03:13;;;;;;;8.87;8.10;;;3.40;75.90;;;;;;5051500;28;20466;-85
2021/11/25 08:05:39;;;;;;;8.93;8.33;;;3.40;75.90;;;;;;5053609;28;20037;-89
2021/11/25 08:08:06;;;;;;;8.10;7.63;;;3.40;75.90;;;;;;5055067;28;20032;-86
2021/11/25 08:10:32;;;;;;;8.57;8.10;;;3.40;75.90;;;;;;5055357;28;20033;-89
2021/11/25 08:12:59;;;;;;;9.23;8.73;;;3.40;75.90;;;;;;5053403;28;20021;-92
2021/11/25 08:15:26;;;;;;;8.47;7.93;;;3.50;75.90;;;;;;5048986;28;20037;-91
2021/11/25 08:17:52;;;;;;;8.17;7.77;;;3.50;75.90;;;;;;5055037;28;20044;-90
2021/11/25 08:20:18;;;;;;;8.20;7.60;;;3.50;75.80;;;;;;5055452;28;20021;-90
2021/11/25 08:22:44;;;;;;;9.33;8.63;;;3.50;75.80;;;;;;5055338;28;20032;-91
2021/11/25 08:25:10;;;;;;;9.63;9.13;;;3.60;75.80;;;;;;5054322;28;20036;-91
2021/11/25 08:27:37;;;;;;;9.93;9.33;;;3.60;75.70;;;;;;5057980;28;20036;-93
2021/11/25 08:30:05;;;;;;;8.60;8.20;;;3.70;75.70;;;;;;5062904;28;20037;-94
2021/11/25 08:32:31;;;;;;;8.30;7.90;;;3.70;75.70;;;;;;5056561;28;20057;-93
2021/11/25 08:34:57;;;;;;;9.83;9.23;;;3.70;75.70;;;;;;5053984;28;20044;-92
2021/11/25 08:37:23;;;;;;;8.13;7.73;;;3.80;75.70;;;;;;5055240;28;20496;-90
2021/11/25 08:39:49;;;;;;;8.73;8.33;;;3.80;75.70;;;;;;5052318;28;20036;-91
2021/11/25 08:42:15;;;;;;;8.93;8.53;;;3.80;75.60;;;;;;5064614;28;20040;-89
2021/11/25 08:44:42;;;;;;;8.77;8.20;;;3.90;75.70;;;;;;5054154;28;20060;-89
2021/11/25 08:47:08;;;;;;;8.37;7.97;;;3.90;75.60;;;;;;5052708;28;20625;-86
2021/11/25 08:49:34;;;;;;;9.40;8.87;;;4.00;75.70;;;;;;5086646;28;20374;-89
2021/11/25 08:52:00;;;;;;;8.70;8.30;;;4.00;75.60;;;;;;5085547;28;20033;-92
2021/11/25 08:54:26;;;;;;;9.63;9.03;;;4.10;75.80;;;;;;5056171;28;20046;-92
2021/11/25 08:56:52;;;;;;;10.53;9.93;;;4.30;76.00;;;;;;5034258;28;20048;-92
2021/11/25 08:59:19;;;;;;;8.83;8.43;;;4.60;76.00;;;;;;5060697;28;20048;-90
2021/11/25 09:01:45;;;;;;;10.90;10.30;;;5.00;75.70;;;;;;5088176;28;20036;-90
2021/11/25 09:04:11;;;;;;;9.23;8.80;;;5.20;75.20;;;;;;5072996;28;20386;-93
2021/11/25 09:06:37;;;;;;;8.60;8.20;;;5.40;75.30;;;;;;5056652;28;20025;-93
2021/11/25 09:09:04;;;;;;;8.43;7.93;;;5.50;75.40;;;;;;5095221;28;20032;-94
2021/11/25 09:11:30;;;;;;;9.30;8.80;;;5.70;75.90;;;;;;5062750;28;20049;-90
2021/11/25 09:13:56;;;;;;;10.20;9.40;;;5.80;75.40;;;;;;5055475;28;20048;-93
2021/11/25 09:16:22;;;;;;;10.77;9.97;;;6.00;75.30;;;;;;5035572;28;20040;-93
2021/11/25 09:18:48;;;;;;;9.10;8.60;;;6.10;75.30;;;;;;5051622;28;20430;-92
2021/11/25 09:21:14;;;;;;;10.73;10.17;;;6.20;75.30;;;;;;5050745;28;20032;-90
2021/11/25 09:23:41;;;;;;;9.60;9.20;;;6.20;75.30;;;;;;5054252;28;20045;-92
2021/11/25 09:26:07;;;;;;;10.97;10.23;;;6.40;75.50;;;;;;5053124;28;20075;-94
2021/11/25 09:28:35;;;;;;;13.23;9.30;;;6.50;75.50;;;;;;5053261;28;20040;-94
2021/11/25 09:31:01;;;;;;;10.10;9.60;;;6.60;76.30;;;;;;5063133;28;20025;-95
2021/11/25 09:33:27;;;;;;;9.70;9.27;;;6.60;75.40;;;;;;5069917;28;20023;-95
2021/11/25 09:35:53;;;;;;;14.90;9.80;;;6.50;75.50;;;;;;5258020;22;20069;-90
2021/11/25 09:38:19;;;;;;;11.90;10.90;;;6.50;75.80;;;;;;4996146;28;20038;-89
2021/11/25 09:40:46;;;;;;;11.20;10.50;;;6.60;76.10;;;;;;4995924;28;20033;-86
2021/11/25 09:43:15;;;;;;;11.15;10.50;;;6.70;75.90;;;;;;5011964;28;20029;-84
2021/11/25 09:45:44;;;;;;;10.57;9.87;;;6.70;75.50;;;;;;5014125;28;20037;-86
2021/11/25 09:48:11;;;;;;;10.20;9.57;;;6.70;75.50;;;;;;5011358;28;20026;-86
2021/11/25 09:50:44;;;;;;;9.90;9.40;;;6.70;75.60;;;;;;5011715;28;20034;-90
2021/11/25 09:53:13;;;;;;;10.67;10.07;;;6.60;75.50;;;;;;4975713;28;20040;-87
2021/11/25 09:55:44;;;;;;;8.97;8.43;;;6.70;75.40;;;;;;5020647;28;20028;-76
2021/11/25 09:58:13;;;;;;;9.90;9.40;;;6.60;75.20;;;;;;5022364;28;20037;-90
2021/11/25 10:00:41;;;;;;;9.70;9.20;;;6.60;75.10;;;;;;4993829;28;20045;-90
2021/11/25 10:03:08;;;;;;;8.97;8.57;;;6.50;75.10;;;;;;5008870;28;20025;-89
2021/11/25 10:05:34;;;;;;;9.50;9.10;;;6.40;75.20;;;;;;5006250;28;20414;-93
2021/11/25 10:08:00;;;;;;;9.67;9.20;;;6.40;75.40;;;;;;4997993;28;20030;-88
2021/11/25 10:10:31;;;;;;;9.40;8.90;;;6.30;75.40;;;;;;5020629;28;20402;-92
2021/11/25 10:13:12;;;;;;;9.25;8.85;;;6.30;75.20;;;;;;5005994;28;20040;-90
2021/11/25 10:15:38;;;;;;;10.40;9.77;;;6.30;75.20;;;;;;5028193;28;20037;-91
2021/11/25 10:18:14;;;;;;;9.43;9.03;;;6.30;75.20;;;;;;5030658;28;20041;-92
2021/11/25 10:20:43;;;;;;;9.20;8.80;;;6.30;75.20;;;;;;5000421;28;20021;-90
2021/11/25 10:23:15;;;;;;;9.77;9.27;;;6.30;75.90;;;;;;5006118;28;20044;-87
2021/11/25 10:25:44;;;;;;;9.77;9.30;;;6.40;75.00;;;;;;5028769;28;20026;-91
2021/11/25 10:28:22;;;;;;;10.53;9.83;;;6.40;75.00;;;;;;5031795;28;20390;-88
2021/11/25 10:30:54;;;;;;;10.03;9.53;;;6.40;75.00;;;;;;5013642;28;20045;-88
2021/11/25 10:33:59;;;;;;;11.00;10.07;;;6.50;74.90;;;;;;5011090;28;20498;-89
2021/11/25 10:36:40;;;;;;;10.50;9.80;;;6.60;74.60;;;;;;5029529;28;20238;-84
2021/11/25 10:42:32;;;;;;;10.40;9.50;;;6.80;74.00;;;;;;5012409;28;20029;-90
2021/11/25 10:44:58;;;;;;;10.07;9.57;;;6.90;73.80;;;;;;5009661;28;20041;-85
2021/11/25 10:47:25;;;;;;;9.80;9.30;;;7.00;73.70;;;;;;4995166;28;20041;-85
2021/11/25 10:49:56;;;;;;;10.33;9.77;;;7.00;73.60;;;;;;5010764;28;20497;-84
2021/11/25 10:52:30;;;;;;;14.15;13.45;;;7.10;73.60;;;;;;5024882;28;20037;-88
2021/11/25 10:54:58;;;;;;;11.13;10.63;;;7.20;73.50;;;;;;5006505;28;20030;-89
2021/11/25 10:57:43;;;;;;;16.20;15.37;;;7.20;73.20;;;;;;5006684;28;20482;-91
2021/11/25 11:00:23;;;;;;;12.50;11.80;;;7.20;73.10;;;;;;5024546;28;20049;-89
2021/11/25 11:03:03;;;;;;;11.10;10.60;;;7.30;73.10;;;;;;4992464;28;20041;-84
2021/11/25 11:05:29;;;;;;;10.50;10.00;;;7.30;72.90;;;;;;4994410;28;20060;-84
2021/11/25 11:08:03;;;;;;;12.70;11.70;;;7.30;72.90;;;;;;5025378;28;20037;-84
2021/11/25 11:10:29;;;;;;;14.00;13.13;;;7.40;73.00;;;;;;5005244;28;20038;-86
2021/11/25 11:18:42;;;;;;;16.30;14.73;;;7.60;72.20;;;;;;5008781;28;20022;-83
2021/11/25 11:20:48;;;;;;;16.30;15.45;;;7.70;72.10;;;;;;5028100;28;20490;-83
2021/11/25 11:23:19;;;;;;;12.50;11.90;;;7.80;71.90;;;;;;5026529;28;20017;-81
2021/11/25 11:25:46;;;;;;;11.35;10.85;;;7.80;71.70;;;;;;5012560;28;20394;-84
2021/11/25 11:28:12;;;;;;;11.50;11.00;;;7.90;71.70;;;;;;5011294;28;20038;-83
2021/11/25 11:30:39;;;;;;;11.07;10.55;;;7.90;71.40;;;;;;5011742;28;20026;-84
2021/11/25 11:33:07;;;;;;;11.48;10.45;;;8.10;71.10;;;;;;4993783;28;20099;-84
2021/11/25 11:35:33;;;;;;;11.93;11.32;;;8.10;70.70;;;;;;4997598;28;20402;-84
2021/11/25 11:38:02;;;;;;;11.95;11.35;;;8.20;70.60;;;;;;5013710;28;20037;-89
2021/11/25 11:40:29;;;;;;;12.82;12.23;;;8.30;70.40;;;;;;4997876;28;20045;-91
2021/11/25 11:42:58;;;;;;;13.30;12.60;;;8.40;70.30;;;;;;5016455;28;20532;-90
2021/11/25 11:45:24;;;;;;;12.47;11.83;;;8.40;70.20;;;;;;5013532;28;20085;-88
2021/11/25 11:47:54;;;;;;;15.77;15.07;;;8.50;70.10;;;;;;4999202;28;20393;-88
2021/11/25 11:50:50;;;;;;;17.27;15.52;;;8.60;70.00;;;;;;4996925;28;20033;-88
2021/11/25 11:53:18;;;;;;;14.38;13.70;;;8.60;69.80;;;;;;5013138;28;20041;-83
2021/11/25 11:56:05;;;;;;;13.93;13.23;;;8.70;69.50;;;;;;4982948;28;20382;-87
2021/11/25 11:58:40;;;;;;;15.80;15.10;;;8.60;69.60;;;;;;5015179;28;20057;-87
2021/11/25 12:01:15;;;;;;;14.80;14.10;;;8.70;69.70;;;;;;5029544;28;20045;-85
2021/11/25 12:04:04;;;;;;;14.25;13.50;;;8.70;69.50;;;;;;5032995;28;20041;-87
2021/11/25 12:06:30;;;;;;;15.75;15.05;;;8.80;69.40;;;;;;5017501;28;20025;-83
2021/11/25 12:08:56;;;;;;;49.17;46.70;;;8.90;69.20;;;;;;5032947;28;20388;-83
2021/11/25 12:11:22;;;;;;;15.15;14.35;;;8.90;69.00;;;;;;4998027;28;20036;-83
2021/11/25 12:14:05;;;;;;;21.05;20.02;;;8.90;68.60;;;;;;5032455;28;20041;-85
2021/11/25 12:16:35;;;;;;;15.10;14.40;;;9.00;68.70;;;;;;4981721;28;20053;-85
2021/11/25 12:19:04;;;;;;;15.05;14.13;;;9.00;68.60;;;;;;5013689;28;20042;-85
2021/11/25 12:21:35;;;;;;;14.18;13.48;;;9.00;68.30;;;;;;4998897;28;20044;-85
2021/11/25 12:24:08;;;;;;;;;;;9.10;68.10;;;;;;5016530;28;20026;-87
2021/11/25 12:27:00;;;;;;;12.82;12.05;;;9.10;67.90;;;;;;5015171;28;19909;-85
2021/11/25 12:29:51;;;;;;;25.83;24.63;;;9.10;67.60;;;;;;5015465;28;20517;-88
2021/11/25 12:35:11;;;;;;;19.55;18.60;;;9.20;67.10;;;;;;5017623;28;20037;-84
2021/11/25 12:37:44;;;;;;;24.52;23.27;;;9.30;67.10;;;;;;5017699;28;20037;-84
2021/11/25 12:40:16;;;;;;;14.52;13.57;;;9.30;66.70;;;;;;5032654;28;20037;-87
2021/11/25 12:42:47;;;;;;;20.45;19.50;;;9.30;66.60;;;;;;5013316;28;20030;-85
2021/11/25 12:45:28;;;;;;;12.40;11.80;;;9.40;66.40;;;;;;5014303;28;20037;-84
2021/11/25 12:48:08;;;;;;;;;;;9.40;66.40;;;;;;5016994;28;20032;-87
2021/11/25 12:50:58;;;;;;;13.43;12.63;;;9.50;66.40;;;;;;5032677;28;19909;-88
2021/11/25 12:53:37;;;;;;;12.40;11.70;;;9.60;66.30;;;;;;5006250;28;20034;-88
2021/11/25 12:56:38;;;;;;;13.40;12.65;;;9.50;66.20;;;;;;5032137;28;20036;-88
2021/11/25 12:59:06;;;;;;;13.65;12.95;;;9.60;66.30;;;;;;5015188;28;20041;-88
2021/11/25 13:01:33;;;;;;;14.75;14.07;;;9.60;66.20;;;;;;5032908;28;20029;-87
2021/11/25 13:04:04;;;;;;;14.98;14.18;;;9.60;66.20;;;;;;5014451;28;20048;-88
2021/11/25 13:06:31;;;;;;;20.67;19.73;;;9.50;66.20;;;;;;4999396;28;20379;-89
2021/11/25 13:09:04;;;;;;;12.80;12.20;;;9.40;66.10;;;;;;4998859;28;20188;-88